ACA1054 KSEA-CYVR
Flight info
| Callsign | ACA1054 |
|---|---|
| Flight time | N/A |
| Altitude | 16000 |
| Route | PAE GRIZZ9 |
| Aircraft | A333/H-SDE3GHIJ2J3J5M1RVWXY/LB2D1 |
Departure
| Time | 2026-05-05 04:02 |
|---|---|
| Airport | Seattle–Tacoma International Airport (KSEA) |
Arrival
| Time | N/A |
|---|---|
| Airport | Vancouver International Airport (CYVR) |
| Time | Latitude | Longitude | Altitude | Speed | Heading |
|---|---|---|---|---|---|
| 2026-05-05 03:13 | 47.44618 | -122.30090 | 397 ft | 0 kts | 137° |
| 2026-05-05 03:49 | 47.44633 | -122.30107 | 394 ft | 4 kts | 165° |
| 2026-05-05 03:49 | 47.44653 | -122.30103 | 396 ft | 4 kts | 235° |
| 2026-05-05 03:50 | 47.44665 | -122.30067 | 391 ft | 4 kts | 251° |
| 2026-05-05 03:50 | 47.44673 | -122.30035 | 393 ft | 1 kts | 242° |
| 2026-05-05 03:50 | 47.44673 | -122.30034 | 393 ft | 1 kts | 242° |
| 2026-05-05 03:55 | 47.44672 | -122.30037 | 397 ft | 1 kts | 242° |
| 2026-05-05 03:56 | 47.44664 | -122.30061 | 396 ft | 4 kts | 242° |
| 2026-05-05 03:56 | 47.44651 | -122.30108 | 392 ft | 6 kts | 256° |
| 2026-05-05 03:56 | 47.44657 | -122.30175 | 392 ft | 7 kts | 289° |
| 2026-05-05 03:56 | 47.44687 | -122.30251 | 394 ft | 10 kts | 301° |
| 2026-05-05 03:57 | 47.44725 | -122.30334 | 393 ft | 11 kts | 304° |
| 2026-05-05 03:57 | 47.44773 | -122.30433 | 394 ft | 13 kts | 304° |
| 2026-05-05 03:57 | 47.44828 | -122.30533 | 396 ft | 12 kts | 328° |
| 2026-05-05 03:57 | 47.44911 | -122.30540 | 395 ft | 13 kts | 5° |
| 2026-05-05 03:58 | 47.45010 | -122.30526 | 394 ft | 15 kts | 7° |
| 2026-05-05 03:58 | 47.45120 | -122.30509 | 394 ft | 17 kts | 2° |
| 2026-05-05 03:58 | 47.45246 | -122.30505 | 394 ft | 19 kts | 1° |
| 2026-05-05 03:58 | 47.45384 | -122.30503 | 392 ft | 21 kts | 360° |
| 2026-05-05 03:59 | 47.45530 | -122.30502 | 396 ft | 21 kts | 0° |
| 2026-05-05 03:59 | 47.45678 | -122.30502 | 397 ft | 21 kts | 360° |
| 2026-05-05 03:59 | 47.45819 | -122.30502 | 396 ft | 22 kts | 0° |
| 2026-05-05 03:59 | 47.45974 | -122.30500 | 397 ft | 23 kts | 0° |
| 2026-05-05 04:00 | 47.46129 | -122.30499 | 397 ft | 22 kts | 0° |
| 2026-05-05 04:00 | 47.46265 | -122.30521 | 396 ft | 18 kts | 341° |
| 2026-05-05 04:00 | 47.46360 | -122.30626 | 395 ft | 16 kts | 309° |
| 2026-05-05 04:00 | 47.46348 | -122.30753 | 394 ft | 13 kts | 222° |
| 2026-05-05 04:01 | 47.46278 | -122.30778 | 397 ft | 0 kts | 181° |
| 2026-05-05 04:01 | 47.46181 | -122.30780 | 395 ft | 34 kts | 180° |
| 2026-05-05 04:02 | 47.45706 | -122.30783 | 396 ft | 113 kts | 180° |
| 2026-05-05 04:02 | 47.44637 | -122.30784 | 655 ft | 185 kts | 181° |
| 2026-05-05 04:02 | 47.43182 | -122.30775 | 1446 ft | 230 kts | 181° |
| 2026-05-05 04:02 | 47.41541 | -122.30729 | 2391 ft | 239 kts | 179° |
| 2026-05-05 04:03 | 47.39985 | -122.30650 | 3093 ft | 253 kts | 178° |
| 2026-05-05 04:03 | 47.38412 | -122.30624 | 3785 ft | 263 kts | 181° |
| 2026-05-05 04:03 | 47.36539 | -122.30722 | 4599 ft | 275 kts | 183° |
| 2026-05-05 04:03 | 47.34591 | -122.30900 | 5444 ft | 285 kts | 185° |